createdAt,value
2018-07-31T00:00:31.172Z,22.71
2018-07-31T00:01:39.814Z,22.74
2018-07-31T00:02:48.738Z,22.7
2018-07-31T00:03:57.650Z,22.65
2018-07-31T00:05:06.303Z,22.7
2018-07-31T00:06:14.944Z,22.62
2018-07-31T00:07:23.596Z,22.59
2018-07-31T00:08:32.250Z,22.51
2018-07-31T00:09:40.905Z,22.56
2018-07-31T00:10:49.557Z,22.53
2018-07-31T00:11:58.203Z,22.47
2018-07-31T00:13:06.851Z,22.43
2018-07-31T00:14:15.761Z,22.46
2018-07-31T00:15:24.423Z,22.46
2018-07-31T00:16:33.324Z,22.47
2018-07-31T00:17:41.979Z,22.47
2018-07-31T00:18:50.626Z,22.37
2018-07-31T00:19:59.285Z,22.4
2018-07-31T00:21:07.927Z,22.33
2018-07-31T00:22:16.580Z,22.33
2018-07-31T00:23:25.228Z,22.36
2018-07-31T00:24:33.885Z,22.31
2018-07-31T00:25:42.541Z,22.3
2018-07-31T00:26:51.185Z,22.3
2018-07-31T00:28:00.100Z,22.36
2018-07-31T00:29:08.750Z,22.25
2018-07-31T00:30:17.410Z,22.31
2018-07-31T00:31:26.059Z,22.37
2018-07-31T00:32:34.713Z,22.37
2018-07-31T00:33:43.355Z,22.4
2018-07-31T00:34:52.014Z,22.38
2018-07-31T00:36:00.944Z,22.36
2018-07-31T00:37:09.572Z,22.37
2018-07-31T00:38:18.216Z,22.3
2018-07-31T00:39:26.873Z,22.25
2018-07-31T00:40:35.520Z,22.26
2018-07-31T00:41:44.172Z,22.19
2018-07-31T00:42:52.814Z,22.23
2018-07-31T00:44:01.466Z,22.34
2018-07-31T00:45:10.386Z,22.28
2018-07-31T00:46:19.039Z,22.28
2018-07-31T00:47:27.692Z,22.21
2018-07-31T00:48:36.602Z,22.23
2018-07-31T00:49:45.256Z,22.22
2018-07-31T00:50:53.915Z,22.23
2018-07-31T00:52:02.827Z,22.18
2018-07-31T00:53:11.471Z,22.15
2018-07-31T00:54:20.120Z,22.16
2018-07-31T00:55:29.036Z,22.18
2018-07-31T00:56:37.692Z,22.12
2018-07-31T00:57:46.336Z,22.08
2018-07-31T00:58:54.988Z,22.08
2018-07-31T01:00:03.636Z,22.08
2018-07-31T01:01:12.283Z,22.16
2018-07-31T01:02:20.931Z,22.12
2018-07-31T01:03:30.109Z,22.1
2018-07-31T01:04:38.759Z,22.12
2018-07-31T01:05:47.414Z,22.15
2018-07-31T01:06:56.065Z,22.06
2018-07-31T01:08:04.714Z,22.21
2018-07-31T01:09:13.363Z,22.08
2018-07-31T01:10:22.007Z,22.19
2018-07-31T01:11:30.662Z,22.12
2018-07-31T01:12:39.310Z,22.06
2018-07-31T01:13:47.966Z,21.97
2018-07-31T01:14:56.870Z,22.01
2018-07-31T01:16:05.531Z,22
2018-07-31T01:17:14.179Z,21.99
2018-07-31T01:18:22.831Z,21.92
2018-07-31T01:19:31.478Z,21.84
2018-07-31T01:20:40.131Z,21.88
2018-07-31T01:21:48.781Z,21.89
2018-07-31T01:22:57.438Z,21.85
2018-07-31T01:24:06.355Z,21.84
2018-07-31T01:25:15.262Z,21.88
2018-07-31T01:26:23.909Z,21.91
2018-07-31T01:27:32.558Z,21.81
2018-07-31T01:28:41.212Z,21.83
2018-07-31T01:29:49.859Z,21.84
2018-07-31T01:30:58.512Z,21.8
2018-07-31T01:32:07.166Z,21.77
2018-07-31T01:33:16.347Z,21.77
2018-07-31T01:34:24.991Z,21.74
2018-07-31T01:35:33.648Z,21.77
2018-07-31T01:36:42.293Z,21.72
2018-07-31T01:37:50.945Z,21.74
2018-07-31T01:38:59.593Z,21.75
2018-07-31T01:40:08.506Z,21.75
2018-07-31T01:41:17.412Z,21.75
2018-07-31T01:42:26.065Z,21.75
2018-07-31T01:43:34.981Z,21.68
2018-07-31T01:44:44.157Z,21.74
2018-07-31T01:45:52.827Z,21.7
2018-07-31T01:47:01.454Z,21.7
2018-07-31T01:48:10.633Z,21.69
2018-07-31T01:49:19.278Z,21.63
2018-07-31T01:50:27.933Z,21.66
2018-07-31T01:51:36.574Z,21.65
2018-07-31T01:52:45.232Z,21.66
2018-07-31T01:53:53.878Z,21.72
2018-07-31T01:55:02.531Z,21.68
2018-07-31T01:56:11.441Z,21.75
2018-07-31T01:57:20.091Z,21.7
2018-07-31T01:58:28.746Z,21.78
2018-07-31T01:59:37.407Z,21.84
2018-07-31T02:00:46.056Z,21.85
2018-07-31T02:01:54.699Z,21.83
2018-07-31T02:03:03.355Z,21.81
2018-07-31T02:04:11.998Z,21.83
2018-07-31T02:05:20.657Z,21.83
2018-07-31T02:06:29.565Z,21.89
2018-07-31T02:07:38.216Z,21.91
2018-07-31T02:08:46.862Z,21.83
2018-07-31T02:09:55.521Z,21.83
2018-07-31T02:11:04.426Z,21.85
2018-07-31T02:12:13.077Z,21.78
2018-07-31T02:13:21.725Z,21.72
2018-07-31T02:14:30.384Z,21.8
2018-07-31T02:15:39.295Z,21.75
2018-07-31T02:16:47.940Z,21.75
2018-07-31T02:17:56.584Z,21.8
2018-07-31T02:19:05.234Z,21.74
2018-07-31T02:20:13.895Z,21.7
2018-07-31T02:21:22.535Z,21.68
2018-07-31T02:22:31.460Z,21.66
2018-07-31T02:23:40.098Z,21.69
2018-07-31T02:24:48.757Z,21.54
2018-07-31T02:25:57.661Z,21.58
2018-07-31T02:27:06.583Z,21.53
2018-07-31T02:28:15.362Z,21.56
2018-07-31T02:29:24.255Z,21.58
2018-07-31T02:30:32.899Z,21.53
2018-07-31T02:31:41.552Z,21.51
2018-07-31T02:32:50.203Z,21.48
2018-07-31T02:33:59.119Z,21.47
2018-07-31T02:35:08.300Z,21.43
2018-07-31T02:36:17.220Z,21.4
2018-07-31T02:37:26.408Z,21.44
2018-07-31T02:38:35.056Z,21.43
2018-07-31T02:39:43.720Z,21.35
2018-07-31T02:40:52.895Z,21.43
2018-07-31T02:42:01.816Z,21.37
2018-07-31T02:43:10.457Z,21.43
2018-07-31T02:44:19.128Z,21.43
2018-07-31T02:45:28.034Z,21.44
2018-07-31T02:46:36.949Z,21.41
2018-07-31T02:47:45.600Z,21.33
2018-07-31T02:48:54.256Z,21.4
2018-07-31T02:50:02.920Z,21.38
2018-07-31T02:51:11.577Z,21.35
2018-07-31T02:52:20.222Z,21.37
2018-07-31T02:53:28.867Z,21.44
2018-07-31T02:54:37.528Z,21.37
2018-07-31T02:55:46.168Z,21.41
2018-07-31T02:56:55.106Z,21.33
2018-07-31T02:58:04.059Z,21.35
2018-07-31T02:59:12.683Z,21.37
2018-07-31T03:00:21.330Z,21.38
2018-07-31T03:01:29.983Z,21.38
2018-07-31T03:02:38.633Z,21.35
2018-07-31T03:03:47.288Z,21.44
2018-07-31T03:04:55.933Z,21.41
2018-07-31T03:06:04.864Z,21.38
2018-07-31T03:07:13.515Z,21.35
2018-07-31T03:08:22.168Z,21.41
2018-07-31T03:09:30.817Z,21.43
2018-07-31T03:10:39.470Z,21.37
2018-07-31T03:11:48.125Z,21.22
2018-07-31T03:12:56.784Z,21.37
2018-07-31T03:14:05.440Z,21.33
2018-07-31T03:15:14.084Z,21.35
2018-07-31T03:16:23.011Z,21.35
2018-07-31T03:17:31.931Z,21.3
2018-07-31T03:18:40.585Z,21.28
2018-07-31T03:19:49.231Z,21.4
2018-07-31T03:20:57.885Z,21.26
2018-07-31T03:22:06.796Z,21.23
2018-07-31T03:23:15.452Z,21.25
2018-07-31T03:24:24.630Z,21.26
2018-07-31T03:25:33.282Z,21.29
2018-07-31T03:26:42.259Z,21.23
2018-07-31T03:27:51.187Z,21.25
2018-07-31T03:28:59.835Z,21.19
2018-07-31T03:30:08.496Z,21.14
2018-07-31T03:31:17.673Z,21.14
2018-07-31T03:32:26.326Z,21.14
2018-07-31T03:33:34.977Z,21.15
2018-07-31T03:34:43.626Z,21.2
2018-07-31T03:35:52.275Z,21.17
2018-07-31T03:37:01.178Z,21.15
2018-07-31T03:38:10.360Z,21.07
2018-07-31T03:39:19.278Z,21.04
2018-07-31T03:40:27.930Z,21.13
2018-07-31T03:41:36.570Z,21.03
2018-07-31T03:42:45.222Z,21.04
2018-07-31T03:43:53.870Z,20.98
2018-07-31T03:45:02.786Z,21
2018-07-31T03:46:11.438Z,20.93
2018-07-31T03:47:20.085Z,20.89
2018-07-31T03:48:28.733Z,20.89
2018-07-31T03:49:37.380Z,20.9
2018-07-31T03:50:46.028Z,20.89
2018-07-31T03:51:54.681Z,20.89
2018-07-31T03:53:03.596Z,20.92
2018-07-31T03:54:12.512Z,20.88
2018-07-31T03:55:21.157Z,20.83
2018-07-31T03:56:30.157Z,20.8
2018-07-31T03:57:38.803Z,20.78
2018-07-31T03:58:47.449Z,20.85
2018-07-31T03:59:56.095Z,20.7
2018-07-31T04:01:04.750Z,20.82
2018-07-31T04:02:13.397Z,20.77
2018-07-31T04:03:22.052Z,20.74
2018-07-31T04:04:31.007Z,20.7
2018-07-31T04:05:39.939Z,20.73
2018-07-31T04:06:48.588Z,20.73
2018-07-31T04:07:57.242Z,20.8
2018-07-31T04:09:05.893Z,20.7
2018-07-31T04:10:14.538Z,20.71
2018-07-31T04:11:23.189Z,20.8
2018-07-31T04:12:31.839Z,20.85
2018-07-31T04:13:40.491Z,20.74
2018-07-31T04:14:49.135Z,20.73
2018-07-31T04:15:57.785Z,20.82
2018-07-31T04:17:06.441Z,20.8
2018-07-31T04:18:15.090Z,20.82
2018-07-31T04:19:23.734Z,20.71
2018-07-31T04:20:32.385Z,20.82
2018-07-31T04:21:41.032Z,20.82
2018-07-31T04:22:49.685Z,20.68
2018-07-31T04:23:58.331Z,20.86
2018-07-31T04:25:06.977Z,20.7
2018-07-31T04:26:15.889Z,20.7
2018-07-31T04:27:24.535Z,20.85
2018-07-31T04:28:33.187Z,20.85
2018-07-31T04:29:41.838Z,20.77
2018-07-31T04:30:50.487Z,20.78
2018-07-31T04:31:59.131Z,20.83
2018-07-31T04:33:07.785Z,20.83
2018-07-31T04:34:16.438Z,20.88
2018-07-31T04:35:25.085Z,20.7
2018-07-31T04:36:33.730Z,20.85
2018-07-31T04:37:42.380Z,20.8
2018-07-31T04:38:51.028Z,20.77
2018-07-31T04:39:59.681Z,20.89
2018-07-31T04:41:08.969Z,20.89
2018-07-31T04:42:17.618Z,20.95
2018-07-31T04:43:26.224Z,20.95
2018-07-31T04:44:34.877Z,20.88
2018-07-31T04:45:43.529Z,20.9
2018-07-31T04:46:52.167Z,20.93
2018-07-31T04:48:01.085Z,20.9
2018-07-31T04:49:09.729Z,20.93
2018-07-31T04:50:18.437Z,20.95
2018-07-31T04:51:27.292Z,20.98
2018-07-31T04:52:35.948Z,20.93
2018-07-31T04:53:44.600Z,20.96
2018-07-31T04:54:53.517Z,20.93
2018-07-31T04:56:02.417Z,20.95
2018-07-31T04:57:11.065Z,20.96
2018-07-31T04:58:19.712Z,20.95
2018-07-31T04:59:28.368Z,21
2018-07-31T05:00:37.285Z,20.9
2018-07-31T05:01:45.928Z,20.9
2018-07-31T05:02:54.575Z,20.98
2018-07-31T05:04:03.221Z,21.03
2018-07-31T05:05:11.880Z,20.98
2018-07-31T05:06:20.796Z,21.08
2018-07-31T05:07:29.443Z,21.04
2018-07-31T05:08:38.078Z,21.05
2018-07-31T05:09:47.001Z,21.08
2018-07-31T05:10:55.665Z,21.14
2018-07-31T05:12:04.630Z,21.14
2018-07-31T05:13:13.270Z,21.17
2018-07-31T05:14:22.195Z,21.23
2018-07-31T05:15:30.845Z,21.3
2018-07-31T05:16:39.501Z,21.33
2018-07-31T05:17:48.142Z,21.4
2018-07-31T05:18:56.793Z,21.4
2018-07-31T05:20:05.446Z,21.44
2018-07-31T05:21:14.097Z,21.54
2018-07-31T05:22:22.749Z,21.53
2018-07-31T05:23:31.390Z,21.66
2018-07-31T05:24:40.045Z,21.72
2018-07-31T05:25:48.689Z,21.77
2018-07-31T05:26:57.349Z,21.91
2018-07-31T05:28:05.991Z,21.94
2018-07-31T05:29:14.646Z,22
2018-07-31T05:30:23.292Z,22.01
2018-07-31T05:31:31.949Z,22.1
2018-07-31T05:32:40.651Z,22.16
2018-07-31T05:33:49.242Z,22.23
2018-07-31T05:34:57.891Z,22.31
2018-07-31T05:36:06.549Z,22.37
2018-07-31T05:37:15.197Z,22.37
2018-07-31T05:38:23.842Z,22.4
2018-07-31T05:39:32.535Z,22.47
2018-07-31T05:40:41.405Z,22.47
2018-07-31T05:41:50.065Z,22.44
2018-07-31T05:42:58.715Z,22.52
2018-07-31T05:44:07.366Z,22.43
2018-07-31T05:45:16.008Z,22.53
2018-07-31T05:46:24.669Z,22.49
2018-07-31T05:47:33.586Z,22.61
2018-07-31T05:48:42.242Z,22.61
2018-07-31T05:49:51.147Z,22.53
2018-07-31T05:50:59.807Z,22.58
2018-07-31T05:52:08.453Z,22.55
2018-07-31T05:53:17.105Z,22.55
2018-07-31T05:54:25.744Z,22.58
2018-07-31T05:55:34.407Z,22.56
2018-07-31T05:56:43.060Z,22.56
2018-07-31T05:57:51.715Z,22.61
2018-07-31T05:59:00.372Z,22.71
2018-07-31T06:00:09.276Z,22.55
2018-07-31T06:01:17.932Z,22.52
2018-07-31T06:02:26.571Z,22.55
2018-07-31T06:03:35.264Z,22.56
2018-07-31T06:04:43.874Z,22.58
2018-07-31T06:05:52.802Z,22.71
2018-07-31T06:07:01.447Z,22.67
2018-07-31T06:08:10.109Z,22.68
2018-07-31T06:09:18.751Z,22.61
2018-07-31T06:10:27.412Z,22.63
2018-07-31T06:11:36.067Z,22.65
2018-07-31T06:12:44.717Z,22.74
2018-07-31T06:13:53.363Z,22.71
2018-07-31T06:15:02.012Z,22.74
2018-07-31T06:16:10.928Z,22.77
2018-07-31T06:17:19.577Z,22.89
2018-07-31T06:18:28.238Z,22.89
2018-07-31T06:19:36.886Z,22.95
2018-07-31T06:20:45.811Z,22.98
2018-07-31T06:21:54.709Z,23.02
2018-07-31T06:23:03.632Z,23.01
2018-07-31T06:24:12.543Z,23.06
2018-07-31T06:25:21.196Z,23.2
2018-07-31T06:26:29.839Z,23.18
2018-07-31T06:27:38.499Z,23.18
2018-07-31T06:28:47.148Z,23.25
2018-07-31T06:29:55.824Z,23.29
2018-07-31T06:31:04.715Z,23.18
2018-07-31T06:32:13.367Z,23.23
2018-07-31T06:33:22.023Z,23.34
2018-07-31T06:34:30.939Z,23.36
2018-07-31T06:35:39.855Z,23.47
2018-07-31T06:36:48.495Z,23.47
2018-07-31T06:37:57.417Z,23.52
2018-07-31T06:39:06.061Z,23.58
2018-07-31T06:40:14.721Z,23.67
2018-07-31T06:41:23.366Z,23.7
2018-07-31T06:42:32.015Z,23.79
2018-07-31T06:43:40.664Z,23.82
2018-07-31T06:44:49.319Z,23.88
2018-07-31T06:45:57.964Z,23.88
2018-07-31T06:47:06.615Z,24.06
2018-07-31T06:48:15.265Z,24.13
2018-07-31T06:49:23.962Z,24.18
2018-07-31T06:50:32.568Z,24.25
2018-07-31T06:51:41.222Z,24.28
2018-07-31T06:52:50.132Z,24.36
2018-07-31T06:53:58.780Z,24.37
2018-07-31T06:55:07.701Z,24.46
2018-07-31T06:56:16.352Z,24.62
2018-07-31T06:57:25.002Z,24.74
2018-07-31T06:58:33.655Z,24.78
2018-07-31T06:59:42.304Z,24.79
2018-07-31T07:00:50.958Z,24.96
2018-07-31T07:01:59.895Z,24.99
2018-07-31T07:03:08.522Z,25.11
2018-07-31T07:04:17.440Z,25.24
2018-07-31T07:05:26.099Z,25.25
2018-07-31T07:06:35.013Z,25.34
2018-07-31T07:07:43.658Z,25.39
2018-07-31T07:08:52.311Z,25.43
2018-07-31T07:10:00.965Z,25.49
2018-07-31T07:11:09.612Z,25.48
2018-07-31T07:12:18.266Z,25.51
2018-07-31T07:13:27.178Z,25.54
2018-07-31T07:14:35.832Z,25.49
2018-07-31T07:15:44.746Z,25.67
2018-07-31T07:16:53.406Z,25.56
2018-07-31T07:18:02.049Z,25.55
2018-07-31T07:19:10.701Z,25.59
2018-07-31T07:20:19.353Z,25.68
2018-07-31T07:21:28.013Z,25.71
2018-07-31T07:22:36.991Z,25.74
2018-07-31T07:23:45.899Z,25.89
2018-07-31T07:24:54.548Z,25.8
2018-07-31T07:26:03.475Z,25.85
2018-07-31T07:27:12.392Z,25.91
2018-07-31T07:28:21.314Z,25.98
2018-07-31T07:29:29.964Z,25.98
2018-07-31T07:30:38.613Z,25.95
2018-07-31T07:31:47.271Z,25.92
2018-07-31T07:32:56.186Z,25.93
2018-07-31T07:34:04.912Z,25.98
2018-07-31T07:35:13.763Z,26.13
2018-07-31T07:36:22.432Z,26.16
2018-07-31T07:37:31.342Z,26.23
2018-07-31T07:38:40.261Z,26.23
2018-07-31T07:39:48.916Z,26.22
2018-07-31T07:40:57.565Z,26.23
2018-07-31T07:42:06.491Z,26.27
2018-07-31T07:43:15.142Z,26.3
2018-07-31T07:44:23.800Z,26.42
2018-07-31T07:45:32.711Z,26.39
2018-07-31T07:46:41.363Z,26.49
2018-07-31T07:47:50.282Z,26.53
2018-07-31T07:48:58.931Z,26.68
2018-07-31T07:50:07.856Z,26.68
2018-07-31T07:51:16.508Z,26.79
2018-07-31T07:52:25.160Z,26.76
2018-07-31T07:53:33.814Z,26.73
2018-07-31T07:54:42.471Z,26.91
2018-07-31T07:55:51.136Z,26.91
2018-07-31T07:56:59.782Z,26.92
2018-07-31T07:58:08.433Z,26.96
2018-07-31T07:59:17.095Z,26.92
2018-07-31T08:00:25.743Z,27.01
2018-07-31T08:01:34.396Z,27
2018-07-31T08:02:43.057Z,26.97
2018-07-31T08:03:51.757Z,27.01
2018-07-31T08:05:00.365Z,27.04
2018-07-31T08:06:09.018Z,27.01
2018-07-31T08:07:17.944Z,27.04
2018-07-31T08:08:26.588Z,27.05
2018-07-31T08:09:35.241Z,27.13
2018-07-31T08:10:43.897Z,27.15
2018-07-31T08:11:52.554Z,27.22
2018-07-31T08:13:01.465Z,27.19
2018-07-31T08:14:10.385Z,27.28
2018-07-31T08:15:19.300Z,27.23
2018-07-31T08:16:27.958Z,27.25
2018-07-31T08:17:36.611Z,27.25
2018-07-31T08:18:45.271Z,27.4
2018-07-31T08:19:54.185Z,27.37
2018-07-31T08:21:03.108Z,27.44
2018-07-31T08:22:11.760Z,27.35
2018-07-31T08:23:20.434Z,27.47
2018-07-31T08:24:29.067Z,27.45
2018-07-31T08:25:37.718Z,27.57
2018-07-31T08:26:46.378Z,27.71
2018-07-31T08:27:55.156Z,27.79
2018-07-31T08:29:03.695Z,27.81
2018-07-31T08:30:12.866Z,27.85
2018-07-31T08:31:21.523Z,27.9
2018-07-31T08:32:30.439Z,27.9
2018-07-31T08:33:39.256Z,28.06
2018-07-31T08:34:47.742Z,28.03
2018-07-31T08:35:56.401Z,28.08
2018-07-31T08:37:05.053Z,28.06
2018-07-31T08:38:13.712Z,28.19
2018-07-31T08:39:22.357Z,28.15
2018-07-31T08:40:31.015Z,28.19
2018-07-31T08:41:39.672Z,28.2
2018-07-31T08:42:48.334Z,28.33
2018-07-31T08:43:56.986Z,28.25
2018-07-31T08:45:05.627Z,28.43
2018-07-31T08:46:14.287Z,28.37
2018-07-31T08:47:23.201Z,28.5
2018-07-31T08:48:32.129Z,28.5
2018-07-31T08:49:41.037Z,28.49
2018-07-31T08:50:49.696Z,28.49
2018-07-31T08:51:58.344Z,28.43
2018-07-31T08:53:07.008Z,28.6
2018-07-31T08:54:15.653Z,28.6
2018-07-31T08:55:24.309Z,28.59
2018-07-31T08:56:32.960Z,28.68
2018-07-31T08:57:41.626Z,28.78
2018-07-31T08:58:50.546Z,28.83
2018-07-31T08:59:59.456Z,28.78
2018-07-31T09:01:08.107Z,28.87
2018-07-31T09:02:16.760Z,28.94
2018-07-31T09:03:25.694Z,29.02
2018-07-31T09:04:34.349Z,29.07
2018-07-31T09:05:43.287Z,29.18
2018-07-31T09:06:51.932Z,29.27
2018-07-31T09:08:00.594Z,29.39
2018-07-31T09:09:09.245Z,29.5
2018-07-31T09:10:17.906Z,29.57
2018-07-31T09:11:26.552Z,29.71
2018-07-31T09:12:35.217Z,29.73
2018-07-31T09:13:43.869Z,29.83
2018-07-31T09:14:52.528Z,29.79
2018-07-31T09:16:01.174Z,29.76
2018-07-31T09:17:10.097Z,29.69
2018-07-31T09:18:19.013Z,29.71
2018-07-31T09:19:27.939Z,29.76
2018-07-31T09:20:36.598Z,29.73
2018-07-31T09:21:45.243Z,29.81
2018-07-31T09:22:53.903Z,29.77
2018-07-31T09:24:02.553Z,29.83
2018-07-31T09:25:11.216Z,29.89
2018-07-31T09:26:19.862Z,29.92
2018-07-31T09:27:28.520Z,30.02
2018-07-31T09:28:37.170Z,30.11
2018-07-31T09:29:46.101Z,30.02
2018-07-31T09:30:55.271Z,30.18
2018-07-31T09:32:03.784Z,30.26
2018-07-31T09:33:12.443Z,30.21
2018-07-31T09:34:21.106Z,30.26
2018-07-31T09:35:29.768Z,30.29
2018-07-31T09:36:38.581Z,30.27
2018-07-31T09:37:47.064Z,30.26
2018-07-31T09:38:55.718Z,30.33
2018-07-31T09:40:04.379Z,30.33
2018-07-31T09:41:13.027Z,30.46
2018-07-31T09:42:21.684Z,30.44
2018-07-31T09:43:30.336Z,30.43
2018-07-31T09:44:38.998Z,30.4
2018-07-31T09:45:47.652Z,30.51
2018-07-31T09:46:56.309Z,30.61
2018-07-31T09:48:04.959Z,30.63
2018-07-31T09:49:13.620Z,30.7
2018-07-31T09:50:22.540Z,30.58
2018-07-31T09:51:31.199Z,30.59
2018-07-31T09:52:39.851Z,30.71
2018-07-31T09:53:48.513Z,30.59
2018-07-31T09:54:57.176Z,30.59
2018-07-31T09:56:05.835Z,30.51
2018-07-31T09:57:14.507Z,30.59
2018-07-31T09:58:23.148Z,30.46
2018-07-31T09:59:31.808Z,30.4
2018-07-31T10:00:40.729Z,30.39
2018-07-31T10:01:49.651Z,30.46
2018-07-31T10:02:58.302Z,30.46
2018-07-31T10:04:07.231Z,30.55
2018-07-31T10:05:15.892Z,30.61
2018-07-31T10:06:24.547Z,30.61
2018-07-31T10:07:33.197Z,30.78
2018-07-31T10:08:41.862Z,30.85
2018-07-31T10:09:50.772Z,30.96
2018-07-31T10:10:59.709Z,31.05
2018-07-31T10:12:08.442Z,31.18
2018-07-31T10:13:17.019Z,31.3
2018-07-31T10:14:25.677Z,31.44
2018-07-31T10:15:34.331Z,31.54
2018-07-31T10:16:43.000Z,31.54
2018-07-31T10:17:51.678Z,31.59
2018-07-31T10:19:00.313Z,31.6
2018-07-31T10:20:08.966Z,31.59
2018-07-31T10:21:17.626Z,31.57
2018-07-31T10:22:26.547Z,31.45
2018-07-31T10:23:35.203Z,31.47
2018-07-31T10:24:43.857Z,31.48
2018-07-31T10:25:52.515Z,31.48
2018-07-31T10:27:01.168Z,31.36
2018-07-31T10:28:09.825Z,31.3
2018-07-31T10:29:18.480Z,31.32
2018-07-31T10:30:27.397Z,31.33
2018-07-31T10:31:36.057Z,31.37
2018-07-31T10:32:44.715Z,31.36
2018-07-31T10:33:53.371Z,31.48
2018-07-31T10:35:02.025Z,31.45
2018-07-31T10:36:10.683Z,31.55
2018-07-31T10:37:19.333Z,31.66
2018-07-31T10:38:28.322Z,31.63
2018-07-31T10:39:37.230Z,31.66
2018-07-31T10:40:45.893Z,31.66
2018-07-31T10:41:54.544Z,31.67
2018-07-31T10:43:03.210Z,31.73
2018-07-31T10:44:11.860Z,31.72
2018-07-31T10:45:20.518Z,31.66
2018-07-31T10:46:29.172Z,31.78
2018-07-31T10:47:37.840Z,31.67
2018-07-31T10:48:46.496Z,31.62
2018-07-31T10:49:55.413Z,31.62
2018-07-31T10:51:04.096Z,31.59
2018-07-31T10:52:13.020Z,31.48
2018-07-31T10:53:21.947Z,31.5
2018-07-31T10:54:30.597Z,31.42
2018-07-31T10:55:39.257Z,31.32
2018-07-31T10:56:47.903Z,31.3
2018-07-31T10:57:56.598Z,31.29
2018-07-31T10:59:05.550Z,31.25
2018-07-31T11:00:14.595Z,31.28
2018-07-31T11:01:23.208Z,31.18
2018-07-31T11:02:31.868Z,31.18
2018-07-31T11:03:40.521Z,31.17
2018-07-31T11:04:49.181Z,31.14
2018-07-31T11:05:57.830Z,31.05
2018-07-31T11:07:06.494Z,31.17
2018-07-31T11:08:15.156Z,31.25
2018-07-31T11:09:23.815Z,31.25
2018-07-31T11:10:32.478Z,31.26
2018-07-31T11:11:41.128Z,31.28
2018-07-31T11:12:49.790Z,31.45
2018-07-31T11:13:58.444Z,31.64
2018-07-31T11:15:07.108Z,31.67
2018-07-31T11:16:15.755Z,31.79
2018-07-31T11:17:24.418Z,31.9
2018-07-31T11:18:33.067Z,32.01
2018-07-31T11:19:41.740Z,32.05
2018-07-31T11:20:50.442Z,32.01
2018-07-31T11:21:59.050Z,31.98
2018-07-31T11:23:07.967Z,32
2018-07-31T11:24:16.631Z,31.86
2018-07-31T11:25:25.281Z,31.85
2018-07-31T11:26:33.934Z,31.69
2018-07-31T11:27:42.597Z,31.72
2018-07-31T11:28:51.250Z,31.73
2018-07-31T11:30:00.237Z,31.69
2018-07-31T11:31:08.889Z,31.66
2018-07-31T11:32:17.552Z,31.77
2018-07-31T11:33:26.201Z,31.77
2018-07-31T11:34:34.859Z,31.87
2018-07-31T11:35:43.784Z,31.89
2018-07-31T11:36:52.437Z,31.89
2018-07-31T11:38:01.103Z,32.01
2018-07-31T11:39:09.752Z,32.04
2018-07-31T11:40:18.410Z,32.08
2018-07-31T11:41:27.065Z,32
2018-07-31T11:42:35.730Z,31.87
2018-07-31T11:43:44.646Z,31.92
2018-07-31T11:44:53.299Z,31.97
2018-07-31T11:46:01.956Z,31.97
2018-07-31T11:47:10.611Z,32.12
2018-07-31T11:48:19.275Z,32.19
2018-07-31T11:49:27.927Z,32.23
2018-07-31T11:50:36.601Z,32.37
2018-07-31T11:51:45.244Z,32.42
2018-07-31T11:52:53.910Z,32.51
2018-07-31T11:54:02.563Z,32.51
2018-07-31T11:55:11.224Z,32.66
2018-07-31T11:56:19.872Z,32.59
2018-07-31T11:57:29.070Z,32.57
2018-07-31T11:58:37.989Z,32.59
2018-07-31T11:59:46.908Z,32.64
2018-07-31T12:00:55.556Z,32.76
2018-07-31T12:02:04.486Z,32.75
2018-07-31T12:03:13.144Z,32.82
2018-07-31T12:04:21.855Z,32.85
2018-07-31T12:05:30.726Z,32.97
2018-07-31T12:06:39.647Z,32.9
2018-07-31T12:07:48.874Z,32.93
2018-07-31T12:08:57.527Z,32.94
2018-07-31T12:10:06.195Z,33.04
2018-07-31T12:11:14.843Z,33.08
2018-07-31T12:12:23.509Z,33.05
2018-07-31T12:13:32.160Z,32.94
2018-07-31T12:14:40.828Z,32.94
2018-07-31T12:15:49.475Z,32.9
2018-07-31T12:16:58.417Z,32.97
2018-07-31T12:18:07.069Z,32.94
2018-07-31T12:19:15.736Z,32.94
2018-07-31T12:20:24.393Z,32.88
2018-07-31T12:21:33.046Z,32.85
2018-07-31T12:22:41.702Z,32.9
2018-07-31T12:23:50.365Z,32.88
2018-07-31T12:24:59.296Z,32.94
2018-07-31T12:26:07.946Z,32.86
2018-07-31T12:27:16.608Z,32.86
2018-07-31T12:28:25.262Z,32.73
2018-07-31T12:29:33.932Z,32.56
2018-07-31T12:30:42.583Z,32.46
2018-07-31T12:31:51.515Z,32.46
2018-07-31T12:33:00.452Z,32.44
2018-07-31T12:34:09.855Z,32.38
2018-07-31T12:35:18.510Z,32.3
2018-07-31T12:36:27.695Z,32.09
2018-07-31T12:37:36.349Z,32.07
2018-07-31T12:38:45.007Z,31.98
2018-07-31T12:39:53.663Z,32.02
2018-07-31T12:41:02.322Z,32.12
2018-07-31T12:42:10.981Z,32.08
2018-07-31T12:43:19.632Z,32.19
2018-07-31T12:44:28.552Z,32.37
2018-07-31T12:45:37.208Z,32.39
2018-07-31T12:46:45.870Z,32.44
2018-07-31T12:47:54.521Z,32.41
2018-07-31T12:49:03.176Z,32.38
2018-07-31T12:50:11.895Z,32.41
2018-07-31T12:51:20.495Z,32.39
2018-07-31T12:52:29.147Z,32.37
2018-07-31T12:53:37.807Z,32.37
2018-07-31T12:54:46.720Z,32.35
2018-07-31T12:55:55.381Z,32.34
2018-07-31T12:57:04.037Z,32.31
2018-07-31T12:58:12.696Z,32.37
2018-07-31T12:59:21.349Z,32.31
2018-07-31T13:00:30.006Z,32.49
2018-07-31T13:01:38.931Z,32.53
2018-07-31T13:02:47.589Z,32.46
2018-07-31T13:03:56.253Z,32.46
2018-07-31T13:05:05.169Z,32.45
2018-07-31T13:06:13.840Z,32.45
2018-07-31T13:07:22.498Z,32.51
2018-07-31T13:08:31.155Z,32.53
2018-07-31T13:09:39.807Z,32.71
2018-07-31T13:10:48.471Z,32.75
2018-07-31T13:11:57.126Z,32.71
2018-07-31T13:13:05.785Z,32.57
2018-07-31T13:14:14.772Z,32.66
2018-07-31T13:15:23.430Z,32.49
2018-07-31T13:16:32.087Z,32.48
2018-07-31T13:17:40.747Z,32.44
2018-07-31T13:18:49.448Z,32.41
2018-07-31T13:19:58.335Z,32.37
2018-07-31T13:21:07.518Z,32.3
2018-07-31T13:22:16.175Z,32.17
2018-07-31T13:23:24.835Z,32.02
2018-07-31T13:24:33.489Z,32.01
2018-07-31T13:25:42.411Z,32
2018-07-31T13:26:51.068Z,31.92
2018-07-31T13:27:59.729Z,31.93
2018-07-31T13:29:08.378Z,31.97
2018-07-31T13:30:17.041Z,32.05
2018-07-31T13:31:25.964Z,32.04
2018-07-31T13:32:34.611Z,32
2018-07-31T13:33:43.271Z,32
2018-07-31T13:34:51.931Z,32.01
2018-07-31T13:36:00.587Z,31.89
2018-07-31T13:37:09.546Z,31.9
2018-07-31T13:38:18.183Z,31.86
2018-07-31T13:39:26.839Z,31.87
2018-07-31T13:40:35.495Z,31.85
2018-07-31T13:41:44.432Z,31.89
2018-07-31T13:42:53.351Z,31.85
2018-07-31T13:44:02.157Z,31.98
2018-07-31T13:45:10.657Z,32
2018-07-31T13:46:19.321Z,31.95
2018-07-31T13:47:27.971Z,32
2018-07-31T13:48:36.630Z,31.98
2018-07-31T13:49:45.281Z,32
2018-07-31T13:50:53.948Z,31.92
2018-07-31T13:52:02.602Z,32.01
2018-07-31T13:53:11.254Z,31.97
2018-07-31T13:54:19.911Z,31.95
2018-07-31T13:55:28.852Z,31.86
2018-07-31T13:56:37.488Z,31.78
2018-07-31T13:57:46.406Z,31.7
2018-07-31T13:58:55.065Z,31.62
2018-07-31T14:00:03.712Z,31.66
2018-07-31T14:01:12.377Z,31.66
2018-07-31T14:02:21.035Z,31.69
2018-07-31T14:03:29.690Z,31.6
2018-07-31T14:04:38.338Z,31.59
2018-07-31T14:05:47.004Z,31.7
2018-07-31T14:06:55.712Z,31.64
2018-07-31T14:08:04.327Z,31.67
2018-07-31T14:09:12.977Z,31.85
2018-07-31T14:10:21.639Z,31.85
2018-07-31T14:11:30.641Z,31.81
2018-07-31T14:12:39.335Z,31.86
2018-07-31T14:13:47.980Z,31.64
2018-07-31T14:14:56.608Z,31.69
2018-07-31T14:16:05.537Z,31.64
2018-07-31T14:17:14.188Z,31.63
2018-07-31T14:18:22.872Z,31.6
2018-07-31T14:19:31.499Z,31.63
2018-07-31T14:20:40.575Z,31.66
2018-07-31T14:21:49.123Z,31.6
2018-07-31T14:22:57.784Z,31.69
2018-07-31T14:24:06.431Z,31.63
2018-07-31T14:25:15.089Z,31.69
2018-07-31T14:26:23.741Z,31.63
2018-07-31T14:27:32.405Z,31.59
2018-07-31T14:28:41.060Z,31.66
2018-07-31T14:29:49.711Z,31.62
2018-07-31T14:30:58.372Z,31.6
2018-07-31T14:32:07.026Z,31.57
2018-07-31T14:33:15.690Z,31.48
2018-07-31T14:34:24.610Z,31.54
2018-07-31T14:35:33.532Z,31.44
2018-07-31T14:36:42.499Z,31.55
2018-07-31T14:37:51.412Z,31.5
2018-07-31T14:39:00.071Z,31.48
2018-07-31T14:40:08.730Z,31.44
2018-07-31T14:41:17.381Z,31.44
2018-07-31T14:42:26.043Z,31.35
2018-07-31T14:43:34.699Z,31.32
2018-07-31T14:44:43.358Z,31.29
2018-07-31T14:45:52.013Z,31.28
2018-07-31T14:47:00.670Z,31.32
2018-07-31T14:48:09.589Z,31.26
2018-07-31T14:49:18.252Z,31.23